sensor_id;sensor_type;location;lat;lon;timestamp;temperature;humidity
75357;HTU21D;63946;51.986;5.930;2022-11-04T06:32:28;10.48;74.67
75357;HTU21D;63946;51.986;5.930;2022-11-04T06:35:00;10.50;74.67
75357;HTU21D;63946;51.986;5.930;2022-11-04T06:37:30;10.49;74.72
75357;HTU21D;63946;51.986;5.930;2022-11-04T06:39:59;10.43;74.76
75357;HTU21D;63946;51.986;5.930;2022-11-04T06:42:28;10.40;74.81
75357;HTU21D;63946;51.986;5.930;2022-11-04T06:44:57;10.37;74.90
75357;HTU21D;63946;51.986;5.930;2022-11-04T06:47:26;10.38;74.89
75357;HTU21D;63946;51.986;5.930;2022-11-04T06:49:57;10.39;74.84
75357;HTU21D;63946;51.986;5.930;2022-11-04T06:52:26;10.37;74.95
75357;HTU21D;63946;51.986;5.930;2022-11-04T06:54:55;10.36;74.97
75357;HTU21D;63946;51.986;5.930;2022-11-04T06:57:24;10.35;74.86
75357;HTU21D;63946;51.986;5.930;2022-11-04T06:59:53;10.29;75.01
75357;HTU21D;63946;51.986;5.930;2022-11-04T07:02:25;10.30;75.01
75357;HTU21D;63946;51.986;5.930;2022-11-04T07:04:53;10.26;75.04
75357;HTU21D;63946;51.986;5.930;2022-11-04T07:07:27;10.23;75.10
75357;HTU21D;63946;51.986;5.930;2022-11-04T07:09:56;10.19;75.09
75357;HTU21D;63946;51.986;5.930;2022-11-04T07:12:25;10.15;75.18
75357;HTU21D;63946;51.986;5.930;2022-11-04T07:14:54;10.11;75.23
75357;HTU21D;63946;51.986;5.930;2022-11-04T07:17:23;10.10;75.22
75357;HTU21D;63946;51.986;5.930;2022-11-04T07:19:52;10.09;75.12
75357;HTU21D;63946;51.986;5.930;2022-11-04T07:22:21;10.08;75.05
75357;HTU21D;63946;51.986;5.930;2022-11-04T07:24:49;10.10;74.93
75357;HTU21D;63946;51.986;5.930;2022-11-04T07:27:21;10.10;74.92
75357;HTU21D;63946;51.986;5.930;2022-11-04T07:29:50;10.11;74.81
75357;HTU21D;63946;51.986;5.930;2022-11-04T07:32:21;10.09;74.85
75357;HTU21D;63946;51.986;5.930;2022-11-04T07:34:53;10.10;74.82
75357;HTU21D;63946;51.986;5.930;2022-11-04T07:37:22;10.10;74.75
75357;HTU21D;63946;51.986;5.930;2022-11-04T07:39:51;10.10;74.69
75357;HTU21D;63946;51.986;5.930;2022-11-04T07:42:20;10.06;74.83
75357;HTU21D;63946;51.986;5.930;2022-11-04T07:44:53;10.05;74.91
75357;HTU21D;63946;51.986;5.930;2022-11-04T07:47:25;10.06;75.01
75357;HTU21D;63946;51.986;5.930;2022-11-04T07:49:57;10.03;75.14
75357;HTU21D;63946;51.986;5.930;2022-11-04T07:52:26;10.03;75.22
75357;HTU21D;63946;51.986;5.930;2022-11-04T07:54:55;10.04;75.31
75357;HTU21D;63946;51.986;5.930;2022-11-04T07:57:24;10.11;75.26
75357;HTU21D;63946;51.986;5.930;2022-11-04T07:59:53;10.20;75.11
75357;HTU21D;63946;51.986;5.930;2022-11-04T08:02:21;10.26;74.96
75357;HTU21D;63946;51.986;5.930;2022-11-04T08:04:50;10.34;74.86
75357;HTU21D;63946;51.986;5.930;2022-11-04T08:07:19;10.35;74.92
75357;HTU21D;63946;51.986;5.930;2022-11-04T08:09:48;10.39;74.85
75357;HTU21D;63946;51.986;5.930;2022-11-04T08:12:17;10.44;74.76
75357;HTU21D;63946;51.986;5.930;2022-11-04T08:14:46;10.49;74.70
75357;HTU21D;63946;51.986;5.930;2022-11-04T08:17:16;10.52;74.69
75357;HTU21D;63946;51.986;5.930;2022-11-04T08:19:46;10.55;74.76
75357;HTU21D;63946;51.986;5.930;2022-11-04T08:22:14;10.58;74.67
75357;HTU21D;63946;51.986;5.930;2022-11-04T08:24:43;10.62;74.58
75357;HTU21D;63946;51.986;5.930;2022-11-04T08:27:15;10.65;74.64
75357;HTU21D;63946;51.986;5.930;2022-11-04T08:29:48;10.70;74.55
75357;HTU21D;63946;51.986;5.930;2022-11-04T08:32:19;10.75;74.45
75357;HTU21D;63946;51.986;5.930;2022-11-04T08:34:48;10.82;74.31
75357;HTU21D;63946;51.986;5.930;2022-11-04T08:37:17;10.85;74.21
75357;HTU21D;63946;51.986;5.930;2022-11-04T08:39:46;10.88;74.20
75357;HTU21D;63946;51.986;5.930;2022-11-04T08:42:15;10.92;74.12
75357;HTU21D;63946;51.986;5.930;2022-11-04T08:44:44;10.96;74.06
75357;HTU21D;63946;51.986;5.930;2022-11-04T08:47:14;10.98;74.00
75357;HTU21D;63946;51.986;5.930;2022-11-04T08:49:43;11.03;73.82
75357;HTU21D;63946;51.986;5.930;2022-11-04T08:52:13;11.07;73.72
75357;HTU21D;63946;51.986;5.930;2022-11-04T08:54:42;11.14;73.60
75357;HTU21D;63946;51.986;5.930;2022-11-04T08:57:12;11.17;73.38
75357;HTU21D;63946;51.986;5.930;2022-11-04T08:59:41;11.11;73.52
75357;HTU21D;63946;51.986;5.930;2022-11-04T09:02:13;11.11;73.71
75357;HTU21D;63946;51.986;5.930;2022-11-04T09:04:43;11.17;73.73
75357;HTU21D;63946;51.986;5.930;2022-11-04T09:07:12;11.23;73.60
75357;HTU21D;63946;51.986;5.930;2022-11-04T09:09:41;11.28;73.54
75357;HTU21D;63946;51.986;5.930;2022-11-04T09:12:10;11.39;73.27
75357;HTU21D;63946;51.986;5.930;2022-11-04T09:14:39;11.48;73.18
75357;HTU21D;63946;51.986;5.930;2022-11-04T09:17:08;11.61;72.92
75357;HTU21D;63946;51.986;5.930;2022-11-04T09:19:37;11.69;72.78
75357;HTU21D;63946;51.986;5.930;2022-11-04T09:22:06;11.72;72.72
75357;HTU21D;63946;51.986;5.930;2022-11-04T09:24:34;11.75;72.64
75357;HTU21D;63946;51.986;5.930;2022-11-04T09:27:04;11.78;72.56
75357;HTU21D;63946;51.986;5.930;2022-11-04T09:29:33;11.79;72.50
75357;HTU21D;63946;51.986;5.930;2022-11-04T09:32:03;11.81;72.48
75357;HTU21D;63946;51.986;5.930;2022-11-04T09:34:32;11.84;72.55
75357;HTU21D;63946;51.986;5.930;2022-11-04T09:37:04;11.86;72.39
75357;HTU21D;63946;51.986;5.930;2022-11-04T09:39:34;11.86;72.42
75357;HTU21D;63946;51.986;5.930;2022-11-04T09:42:42;11.88;72.31
75357;HTU21D;63946;51.986;5.930;2022-11-04T09:45:18;11.88;72.35
75357;HTU21D;63946;51.986;5.930;2022-11-04T09:47:52;11.90;72.45
75357;HTU21D;63946;51.986;5.930;2022-11-04T09:50:29;11.93;72.41
75357;HTU21D;63946;51.986;5.930;2022-11-04T09:53:07;12.01;72.38
75357;HTU21D;63946;51.986;5.930;2022-11-04T09:56:14;12.10;72.20
75357;HTU21D;63946;51.986;5.930;2022-11-04T09:58:50;12.12;72.18
75357;HTU21D;63946;51.986;5.930;2022-11-04T10:01:26;12.13;72.13
75357;HTU21D;63946;51.986;5.930;2022-11-04T10:04:15;12.14;72.01
75357;HTU21D;63946;51.986;5.930;2022-11-04T10:09:36;12.06;72.01
75357;HTU21D;63946;51.986;5.930;2022-11-04T10:15:00;12.06;72.16
75357;HTU21D;63946;51.986;5.930;2022-11-04T10:17:49;12.07;72.10
75357;HTU21D;63946;51.986;5.930;2022-11-04T10:20:43;12.13;71.93
75357;HTU21D;63946;51.986;5.930;2022-11-04T10:23:51;12.18;71.88
75357;HTU21D;63946;51.986;5.930;2022-11-04T10:26:38;12.25;71.77
75357;HTU21D;63946;51.986;5.930;2022-11-04T10:29:14;12.30;71.69
75357;HTU21D;63946;51.986;5.930;2022-11-04T10:31:45;12.37;71.61
75357;HTU21D;63946;51.986;5.930;2022-11-04T10:36:55;12.38;71.68
75357;HTU21D;63946;51.986;5.930;2022-11-04T10:39:26;12.44;71.67
75357;HTU21D;63946;51.986;5.930;2022-11-04T10:41:55;12.48;71.38
75357;HTU21D;63946;51.986;5.930;2022-11-04T10:44:28;12.49;71.33
75357;HTU21D;63946;51.986;5.930;2022-11-04T10:47:21;12.58;71.19
75357;HTU21D;63946;51.986;5.930;2022-11-04T10:49:56;12.64;71.12
75357;HTU21D;63946;51.986;5.930;2022-11-04T10:52:32;12.76;70.95
75357;HTU21D;63946;51.986;5.930;2022-11-04T10:55:12;12.81;70.62
75357;HTU21D;63946;51.986;5.930;2022-11-04T10:57:42;12.86;70.62
75357;HTU21D;63946;51.986;5.930;2022-11-04T11:00:35;12.91;70.53
75357;HTU21D;63946;51.986;5.930;2022-11-04T11:03:27;13.01;70.13
75357;HTU21D;63946;51.986;5.930;2022-11-04T11:06:10;13.07;70.07
75357;HTU21D;63946;51.986;5.930;2022-11-04T11:08:42;13.11;69.86
75357;HTU21D;63946;51.986;5.930;2022-11-04T11:11:12;13.17;69.95
75357;HTU21D;63946;51.986;5.930;2022-11-04T11:13:43;13.20;69.71
75357;HTU21D;63946;51.986;5.930;2022-11-04T11:16:26;13.18;69.78
75357;HTU21D;63946;51.986;5.930;2022-11-04T11:19:17;13.18;69.63
75357;HTU21D;63946;51.986;5.930;2022-11-04T11:21:52;13.17;69.64
75357;HTU21D;63946;51.986;5.930;2022-11-04T11:24:27;13.16;69.56
75357;HTU21D;63946;51.986;5.930;2022-11-04T11:26:59;13.17;69.73
75357;HTU21D;63946;51.986;5.930;2022-11-04T11:29:33;13.19;69.75
75357;HTU21D;63946;51.986;5.930;2022-11-04T11:32:32;13.21;69.58
75357;HTU21D;63946;51.986;5.930;2022-11-04T11:35:21;13.24;69.63
75357;HTU21D;63946;51.986;5.930;2022-11-04T11:37:51;13.23;69.74
75357;HTU21D;63946;51.986;5.930;2022-11-04T11:40:32;13.25;69.45
75357;HTU21D;63946;51.986;5.930;2022-11-04T11:43:03;13.27;69.52
75357;HTU21D;63946;51.986;5.930;2022-11-04T11:45:32;13.35;69.42
75357;HTU21D;63946;51.986;5.930;2022-11-04T11:48:44;13.45;69.20
75357;HTU21D;63946;51.986;5.930;2022-11-04T11:51:28;13.50;68.84
75357;HTU21D;63946;51.986;5.930;2022-11-04T11:56:41;13.70;68.55
75357;HTU21D;63946;51.986;5.930;2022-11-04T12:02:19;13.88;68.38
75357;HTU21D;63946;51.986;5.930;2022-11-04T12:04:51;14.00;68.30
75357;HTU21D;63946;51.986;5.930;2022-11-04T12:07:36;14.12;68.00
75357;HTU21D;63946;51.986;5.930;2022-11-04T12:10:12;14.28;67.72
75357;HTU21D;63946;51.986;5.930;2022-11-04T12:13:15;14.44;67.14
75357;HTU21D;63946;51.986;5.930;2022-11-04T12:18:47;14.41;67.28
75357;HTU21D;63946;51.986;5.930;2022-11-04T12:24:27;14.28;67.49
75357;HTU21D;63946;51.986;5.930;2022-11-04T12:30:11;14.27;66.98
75357;HTU21D;63946;51.986;5.930;2022-11-04T12:33:08;14.24;66.70
75357;HTU21D;63946;51.986;5.930;2022-11-04T12:35:42;14.17;67.07
75357;HTU21D;63946;51.986;5.930;2022-11-04T12:41:22;14.20;66.65
75357;HTU21D;63946;51.986;5.930;2022-11-04T12:44:07;14.17;66.79
75357;HTU21D;63946;51.986;5.930;2022-11-04T12:47:14;14.09;66.72
75357;HTU21D;63946;51.986;5.930;2022-11-04T12:52:38;14.11;67.22
75357;HTU21D;63946;51.986;5.930;2022-11-04T12:57:50;14.11;66.81
75357;HTU21D;63946;51.986;5.930;2022-11-04T13:00:34;14.11;67.04
75357;HTU21D;63946;51.986;5.930;2022-11-04T13:03:14;14.10;67.01
75357;HTU21D;63946;51.986;5.930;2022-11-04T13:05:59;14.08;67.04
75357;HTU21D;63946;51.986;5.930;2022-11-04T13:14:07;14.14;66.65
75357;HTU21D;63946;51.986;5.930;2022-11-04T13:16:39;14.20;66.56
75357;HTU21D;63946;51.986;5.930;2022-11-04T13:19:33;14.21;66.46
75357;HTU21D;63946;51.986;5.930;2022-11-04T13:22:10;14.22;66.25
75357;HTU21D;63946;51.986;5.930;2022-11-04T13:25:03;14.22;66.24
75357;HTU21D;63946;51.986;5.930;2022-11-04T13:27:38;14.20;66.31
75357;HTU21D;63946;51.986;5.930;2022-11-04T13:33:14;14.15;66.35
75357;HTU21D;63946;51.986;5.930;2022-11-04T13:35:58;14.08;66.32
75357;HTU21D;63946;51.986;5.930;2022-11-04T13:38:42;14.07;66.56
75357;HTU21D;63946;51.986;5.930;2022-11-04T13:43:57;14.06;66.69
75357;HTU21D;63946;51.986;5.930;2022-11-04T13:46:30;14.06;66.90
75357;HTU21D;63946;51.986;5.930;2022-11-04T13:51:45;14.10;66.83
75357;HTU21D;63946;51.986;5.930;2022-11-04T13:54:27;14.09;66.79
75357;HTU21D;63946;51.986;5.930;2022-11-04T13:57:19;14.08;66.87
75357;HTU21D;63946;51.986;5.930;2022-11-04T14:02:42;14.09;66.69
75357;HTU21D;63946;51.986;5.930;2022-11-04T14:08:09;14.01;66.62
75357;HTU21D;63946;51.986;5.930;2022-11-04T14:16:11;13.91;66.97
75357;HTU21D;63946;51.986;5.930;2022-11-04T14:18:46;13.88;67.10
75357;HTU21D;63946;51.986;5.930;2022-11-04T14:21:27;13.86;67.16
75357;HTU21D;63946;51.986;5.930;2022-11-04T14:23:59;13.85;67.40
75357;HTU21D;63946;51.986;5.930;2022-11-04T14:26:41;13.81;67.38
75357;HTU21D;63946;51.986;5.930;2022-11-04T14:29:18;13.81;67.55
75357;HTU21D;63946;51.986;5.930;2022-11-04T14:31:57;13.78;67.58
75357;HTU21D;63946;51.986;5.930;2022-11-04T14:34:30;13.71;67.68
75357;HTU21D;63946;51.986;5.930;2022-11-04T14:37:18;13.68;67.85
75357;HTU21D;63946;51.986;5.930;2022-11-04T14:39:56;13.66;68.07
75357;HTU21D;63946;51.986;5.930;2022-11-04T14:42:43;13.67;68.04
75357;HTU21D;63946;51.986;5.930;2022-11-04T14:45:23;13.66;68.02
75357;HTU21D;63946;51.986;5.930;2022-11-04T14:48:06;13.63;68.02
75357;HTU21D;63946;51.986;5.930;2022-11-04T14:50:41;13.58;68.24
75357;HTU21D;63946;51.986;5.930;2022-11-04T14:53:21;13.54;68.39
75357;HTU21D;63946;51.986;5.930;2022-11-04T14:56:06;13.52;68.36
75357;HTU21D;63946;51.986;5.930;2022-11-04T14:58:53;13.44;67.62
75357;HTU21D;63946;51.986;5.930;2022-11-04T15:01:26;13.36;66.91
75357;HTU21D;63946;51.986;5.930;2022-11-04T15:04:26;13.20;65.65
75357;HTU21D;63946;51.986;5.930;2022-11-04T15:07:01;13.04;65.90
75357;HTU21D;63946;51.986;5.930;2022-11-04T15:09:33;12.94;66.14
75357;HTU21D;63946;51.986;5.930;2022-11-04T15:12:10;12.80;66.33
75357;HTU21D;63946;51.986;5.930;2022-11-04T15:14:53;12.66;66.98
75357;HTU21D;63946;51.986;5.930;2022-11-04T15:17:25;12.58;67.35
75357;HTU21D;63946;51.986;5.930;2022-11-04T15:19:56;12.47;67.75
75357;HTU21D;63946;51.986;5.930;2022-11-04T15:22:28;12.40;68.00
75357;HTU21D;63946;51.986;5.930;2022-11-04T15:24:58;12.27;68.36
75357;HTU21D;63946;51.986;5.930;2022-11-04T15:27:30;12.20;68.65
75357;HTU21D;63946;51.986;5.930;2022-11-04T15:30:01;12.17;68.86
75357;HTU21D;63946;51.986;5.930;2022-11-04T15:32:31;12.13;69.00
75357;HTU21D;63946;51.986;5.930;2022-11-04T15:35:01;12.13;69.00
75357;HTU21D;63946;51.986;5.930;2022-11-04T15:37:30;12.13;69.00
75357;HTU21D;63946;51.986;5.930;2022-11-04T15:40:02;12.12;69.01
75357;HTU21D;63946;51.986;5.930;2022-11-04T15:42:43;12.11;69.03
75357;HTU21D;63946;51.986;5.930;2022-11-04T15:53:54;12.07;69.22
75357;HTU21D;63946;51.986;5.930;2022-11-04T15:56:27;12.06;69.35
75357;HTU21D;63946;51.986;5.930;2022-11-04T15:58:58;12.05;69.33
75357;HTU21D;63946;51.986;5.930;2022-11-04T16:01:27;12.02;69.36
75357;HTU21D;63946;51.986;5.930;2022-11-04T16:03:59;11.99;69.49
75357;HTU21D;63946;51.986;5.930;2022-11-04T16:06:39;11.94;69.69
75357;HTU21D;63946;51.986;5.930;2022-11-04T16:09:19;11.89;69.99
75357;HTU21D;63946;51.986;5.930;2022-11-04T16:12:14;11.88;70.06
75357;HTU21D;63946;51.986;5.930;2022-11-04T16:14:49;11.83;70.24
75357;HTU21D;63946;51.986;5.930;2022-11-04T16:17:19;11.78;70.26
75357;HTU21D;63946;51.986;5.930;2022-11-04T16:19:52;11.74;70.35
75357;HTU21D;63946;51.986;5.930;2022-11-04T16:22:36;11.74;70.37
75357;HTU21D;63946;51.986;5.930;2022-11-04T16:25:08;11.73;70.28
75357;HTU21D;63946;51.986;5.930;2022-11-04T16:27:47;11.72;70.25
75357;HTU21D;63946;51.986;5.930;2022-11-04T16:30:19;11.70;70.16
75357;HTU21D;63946;51.986;5.930;2022-11-04T16:32:52;11.71;70.14
75357;HTU21D;63946;51.986;5.930;2022-11-04T16:35:26;11.70;70.16
75357;HTU21D;63946;51.986;5.930;2022-11-04T16:37:59;11.67;70.15
75357;HTU21D;63946;51.986;5.930;2022-11-04T16:40:28;11.64;70.10
75357;HTU21D;63946;51.986;5.930;2022-11-04T16:42:57;11.59;70.15
75357;HTU21D;63946;51.986;5.930;2022-11-04T16:45:29;11.57;70.18
75357;HTU21D;63946;51.986;5.930;2022-11-04T16:47:59;11.49;70.27
75357;HTU21D;63946;51.986;5.930;2022-11-04T16:50:28;11.46;70.30
75357;HTU21D;63946;51.986;5.930;2022-11-04T16:53:00;11.42;70.38
75357;HTU21D;63946;51.986;5.930;2022-11-04T16:55:29;11.43;70.29
75357;HTU21D;63946;51.986;5.930;2022-11-04T16:58:01;11.43;70.31
75357;HTU21D;63946;51.986;5.930;2022-11-04T17:00:33;11.43;70.19
75357;HTU21D;63946;51.986;5.930;2022-11-04T17:03:17;11.41;70.22
75357;HTU21D;63946;51.986;5.930;2022-11-04T17:05:48;11.38;70.22
75357;HTU21D;63946;51.986;5.930;2022-11-04T17:08:18;11.33;70.34
75357;HTU21D;63946;51.986;5.930;2022-11-04T17:10:47;11.32;70.39
75357;HTU21D;63946;51.986;5.930;2022-11-04T17:13:22;11.30;70.42
75357;HTU21D;63946;51.986;5.930;2022-11-04T17:15:52;11.26;70.39
75357;HTU21D;63946;51.986;5.930;2022-11-04T17:18:21;11.23;70.41
75357;HTU21D;63946;51.986;5.930;2022-11-04T17:20:52;11.23;70.33
75357;HTU21D;63946;51.986;5.930;2022-11-04T17:23:22;11.18;70.38
75357;HTU21D;63946;51.986;5.930;2022-11-04T17:25:51;11.18;70.38
75357;HTU21D;63946;51.986;5.930;2022-11-04T17:28:22;11.16;70.39
75357;HTU21D;63946;51.986;5.930;2022-11-04T17:30:51;11.15;70.40
75357;HTU21D;63946;51.986;5.930;2022-11-04T17:33:20;11.15;70.39
75357;HTU21D;63946;51.986;5.930;2022-11-04T17:35:50;11.13;70.45
75357;HTU21D;63946;51.986;5.930;2022-11-04T17:38:21;11.11;70.43
75357;HTU21D;63946;51.986;5.930;2022-11-04T17:40:50;11.12;70.43
75357;HTU21D;63946;51.986;5.930;2022-11-04T17:43:31;11.09;70.43
75357;HTU21D;63946;51.986;5.930;2022-11-04T17:46:14;11.07;70.49
75357;HTU21D;63946;51.986;5.930;2022-11-04T17:48:56;11.05;70.53
75357;HTU21D;63946;51.986;5.930;2022-11-04T17:51:26;11.05;70.52
75357;HTU21D;63946;51.986;5.930;2022-11-04T17:53:54;11.02;70.61
75357;HTU21D;63946;51.986;5.930;2022-11-04T17:56:24;11.00;70.73
75357;HTU21D;63946;51.986;5.930;2022-11-04T17:58:53;11.01;70.77
75357;HTU21D;63946;51.986;5.930;2022-11-04T18:01:24;11.02;70.74
75357;HTU21D;63946;51.986;5.930;2022-11-04T18:03:53;11.01;70.77
75357;HTU21D;63946;51.986;5.930;2022-11-04T18:06:24;11.02;70.84
75357;HTU21D;63946;51.986;5.930;2022-11-04T18:08:54;11.01;70.87
75357;HTU21D;63946;51.986;5.930;2022-11-04T18:11:25;10.99;71.01
75357;HTU21D;63946;51.986;5.930;2022-11-04T18:14:07;10.96;71.13
75357;HTU21D;63946;51.986;5.930;2022-11-04T18:16:40;10.94;71.24
75357;HTU21D;63946;51.986;5.930;2022-11-04T18:19:08;10.94;71.23
75357;HTU21D;63946;51.986;5.930;2022-11-04T18:21:37;10.93;71.27
75357;HTU21D;63946;51.986;5.930;2022-11-04T18:24:07;10.89;71.47
75357;HTU21D;63946;51.986;5.930;2022-11-04T18:26:36;10.89;71.49
75357;HTU21D;63946;51.986;5.930;2022-11-04T18:29:05;10.89;71.51
75357;HTU21D;63946;51.986;5.930;2022-11-04T18:31:36;10.89;71.51
75357;HTU21D;63946;51.986;5.930;2022-11-04T18:34:07;10.89;71.58
75357;HTU21D;63946;51.986;5.930;2022-11-04T18:36:42;10.88;71.59
75357;HTU21D;63946;51.986;5.930;2022-11-04T18:39:14;10.87;71.67
75357;HTU21D;63946;51.986;5.930;2022-11-04T18:41:43;10.87;71.72
75357;HTU21D;63946;51.986;5.930;2022-11-04T18:44:18;10.86;71.78
75357;HTU21D;63946;51.986;5.930;2022-11-04T18:46:48;10.84;71.79
75357;HTU21D;63946;51.986;5.930;2022-11-04T18:49:17;10.82;71.87
75357;HTU21D;63946;51.986;5.930;2022-11-04T18:51:46;10.82;71.93
75357;HTU21D;63946;51.986;5.930;2022-11-04T18:54:15;10.82;71.90
75357;HTU21D;63946;51.986;5.930;2022-11-04T18:56:44;10.79;71.93
75357;HTU21D;63946;51.986;5.930;2022-11-04T18:59:14;10.79;71.97
75357;HTU21D;63946;51.986;5.930;2022-11-04T19:01:43;10.79;72.03
75357;HTU21D;63946;51.986;5.930;2022-11-04T19:04:12;10.75;72.11
75357;HTU21D;63946;51.986;5.930;2022-11-04T19:06:42;10.77;72.13
75357;HTU21D;63946;51.986;5.930;2022-11-04T19:09:14;10.72;72.25
75357;HTU21D;63946;51.986;5.930;2022-11-04T19:11:43;10.71;72.32
75357;HTU21D;63946;51.986;5.930;2022-11-04T19:14:17;10.70;72.39
75357;HTU21D;63946;51.986;5.930;2022-11-04T19:16:46;10.71;72.38
75357;HTU21D;63946;51.986;5.930;2022-11-04T19:19:15;10.70;72.41
75357;HTU21D;63946;51.986;5.930;2022-11-04T19:21:44;10.67;72.46
75357;HTU21D;63946;51.986;5.930;2022-11-04T19:24:14;10.65;72.55
75357;HTU21D;63946;51.986;5.930;2022-11-04T19:26:44;10.64;72.58
75357;HTU21D;63946;51.986;5.930;2022-11-04T19:29:13;10.62;72.61
75357;HTU21D;63946;51.986;5.930;2022-11-04T19:31:41;10.60;72.67
75357;HTU21D;63946;51.986;5.930;2022-11-04T19:34:12;10.58;72.74
75357;HTU21D;63946;51.986;5.930;2022-11-04T19:36:41;10.54;72.70
75357;HTU21D;63946;51.986;5.930;2022-11-04T19:39:10;10.50;72.73
75357;HTU21D;63946;51.986;5.930;2022-11-04T19:41:39;10.45;72.70
75357;HTU21D;63946;51.986;5.930;2022-11-04T19:44:20;10.40;72.67
75357;HTU21D;63946;51.986;5.930;2022-11-04T19:46:49;10.34;72.70
75357;HTU21D;63946;51.986;5.930;2022-11-04T19:49:18;10.30;72.70
75357;HTU21D;63946;51.986;5.930;2022-11-04T19:51:47;10.28;72.72
75357;HTU21D;63946;51.986;5.930;2022-11-04T19:54:16;10.24;72.75
75357;HTU21D;63946;51.986;5.930;2022-11-04T19:56:45;10.21;72.78
75357;HTU21D;63946;51.986;5.930;2022-11-04T19:59:14;10.18;72.78
75357;HTU21D;63946;51.986;5.930;2022-11-04T20:01:43;10.14;72.87
75357;HTU21D;63946;51.986;5.930;2022-11-04T20:04:12;10.10;72.93
75357;HTU21D;63946;51.986;5.930;2022-11-04T20:06:41;10.08;72.93
75357;HTU21D;63946;51.986;5.930;2022-11-04T20:09:15;10.05;73.03
75357;HTU21D;63946;51.986;5.930;2022-11-04T20:11:45;10.03;73.03
75357;HTU21D;63946;51.986;5.930;2022-11-04T20:14:28;9.94;73.12
75357;HTU21D;63946;51.986;5.930;2022-11-04T20:16:59;9.94;73.10
75357;HTU21D;63946;51.986;5.930;2022-11-04T20:19:28;9.92;73.14
75357;HTU21D;63946;51.986;5.930;2022-11-04T20:21:57;9.90;73.19
75357;HTU21D;63946;51.986;5.930;2022-11-04T20:24:31;9.88;73.19
75357;HTU21D;63946;51.986;5.930;2022-11-04T20:27:00;9.83;73.26
75357;HTU21D;63946;51.986;5.930;2022-11-04T20:29:29;9.80;73.27
75357;HTU21D;63946;51.986;5.930;2022-11-04T20:31:58;9.78;73.25
75357;HTU21D;63946;51.986;5.930;2022-11-04T20:34:27;9.75;73.22
75357;HTU21D;63946;51.986;5.930;2022-11-04T20:36:59;9.74;73.22
75357;HTU21D;63946;51.986;5.930;2022-11-04T20:39:28;9.72;73.22
75357;HTU21D;63946;51.986;5.930;2022-11-04T20:41:57;9.68;73.26
75357;HTU21D;63946;51.986;5.930;2022-11-04T20:44:25;9.64;73.38
75357;HTU21D;63946;51.986;5.930;2022-11-04T20:46:54;9.61;73.43
75357;HTU21D;63946;51.986;5.930;2022-11-04T20:49:23;9.57;73.44
75357;HTU21D;63946;51.986;5.930;2022-11-04T20:51:55;9.56;73.43
75357;HTU21D;63946;51.986;5.930;2022-11-04T20:54:24;9.54;73.47
75357;HTU21D;63946;51.986;5.930;2022-11-04T20:56:54;9.51;73.51
75357;HTU21D;63946;51.986;5.930;2022-11-04T20:59:25;9.51;73.53
75357;HTU21D;63946;51.986;5.930;2022-11-04T21:01:55;9.49;73.52
75357;HTU21D;63946;51.986;5.930;2022-11-04T21:04:24;9.48;73.50
75357;HTU21D;63946;51.986;5.930;2022-11-04T21:06:56;9.47;73.57
75357;HTU21D;63946;51.986;5.930;2022-11-04T21:09:25;9.46;73.61
75357;HTU21D;63946;51.986;5.930;2022-11-04T21:11:54;9.44;73.60
75357;HTU21D;63946;51.986;5.930;2022-11-04T21:14:24;9.39;73.59
75357;HTU21D;63946;51.986;5.930;2022-11-04T21:16:54;9.36;73.50
75357;HTU21D;63946;51.986;5.930;2022-11-04T21:19:29;9.33;73.35
75357;HTU21D;63946;51.986;5.930;2022-11-04T21:21:58;9.30;73.30
75357;HTU21D;63946;51.986;5.930;2022-11-04T21:24:27;9.26;73.25
75357;HTU21D;63946;51.986;5.930;2022-11-04T21:26:57;9.22;73.32
75357;HTU21D;63946;51.986;5.930;2022-11-04T21:29:26;9.17;73.41
75357;HTU21D;63946;51.986;5.930;2022-11-04T21:31:55;9.15;73.46
75357;HTU21D;63946;51.986;5.930;2022-11-04T21:34:24;9.14;73.38
75357;HTU21D;63946;51.986;5.930;2022-11-04T21:36:53;9.10;73.25
75357;HTU21D;63946;51.986;5.930;2022-11-04T21:39:22;9.06;73.27
75357;HTU21D;63946;51.986;5.930;2022-11-04T21:41:51;9.01;73.34
75357;HTU21D;63946;51.986;5.930;2022-11-04T21:44:20;8.98;73.38
75357;HTU21D;63946;51.986;5.930;2022-11-04T21:46:49;8.97;73.32
75357;HTU21D;63946;51.986;5.930;2022-11-04T21:49:18;8.95;73.20
75357;HTU21D;63946;51.986;5.930;2022-11-04T21:51:47;8.91;73.12
75357;HTU21D;63946;51.986;5.930;2022-11-04T21:54:16;8.86;73.12
75357;HTU21D;63946;51.986;5.930;2022-11-04T21:56:45;8.79;73.36
75357;HTU21D;63946;51.986;5.930;2022-11-04T21:59:14;8.76;73.28
75357;HTU21D;63946;51.986;5.930;2022-11-04T22:01:42;8.72;73.25
75357;HTU21D;63946;51.986;5.930;2022-11-04T22:04:11;8.66;73.36
75357;HTU21D;63946;51.986;5.930;2022-11-04T22:06:40;8.63;73.29
75357;HTU21D;63946;51.986;5.930;2022-11-04T22:09:10;8.61;73.19
75357;HTU21D;63946;51.986;5.930;2022-11-04T22:11:41;8.58;73.19
75357;HTU21D;63946;51.986;5.930;2022-11-04T22:14:11;8.53;73.38
75357;HTU21D;63946;51.986;5.930;2022-11-04T22:16:39;8.51;73.49
75357;HTU21D;63946;51.986;5.930;2022-11-04T22:19:10;8.51;73.60
75357;HTU21D;63946;51.986;5.930;2022-11-04T22:21:41;8.49;73.48
75357;HTU21D;63946;51.986;5.930;2022-11-04T22:24:12;8.44;73.65
